Newington, Connecticut
Current Conditions -  °F | °C
As of 2:53 AM on Sunday 23 Nov 2014 (Local Time) from KHFD Reporting Station
Overcast Overcast  
Wind Chill: 36°   Ceiling: 5500
Heat Index: 41°   Visibility: 10mi
Dew Point: 20°   Wind: 7mph
Humidity: 43%   Direction: 150°SSE
Pressure: 30.14"   Gusts: NA
Location:  41.7°N, 72.73°W
Report Text: KHFD 230753Z AUTO 15006KT 10SM BKN055 OVC110 05/M07 A3014 RMK AO2 SLP207 T00501067
Loading
Personal Weather Stations






























Interactive Weather Map New forecast layout! Learn more

10-Day Weather Forecast

Advertisements
Track Severe Weather on mobile